Flight Track Log - Related Links

Times and Time Zones

All times are in EST time to prevent confusion due to time zone crossing. See the ASH3759 flight status page for this flight to view local times or setup timezone preferences in your user account.

Time Position Orientation Groundspeed Altitude Reporting Facility
EST Latitude Longitude Course Direction KTS MPH feet Rate Location/Type
Thu 06:16:21 PM 44.9000 -93.2500 154° Southeast 156 180 2,300  Level Minneapolis TRACON
Thu 06:17:07 PM 44.8892 -93.2983 252° West 182 209 3,400 2,056 Climbing Minneapolis Center
Thu 06:18:09 PM 44.8772 -93.3853 259° West 226 260 6,000 2,565 Climbing Minneapolis Center
Thu 06:19:11 PM 44.8256 -93.4367 215° Southwest 273 314 8,700 2,274 Climbing Minneapolis Center
Thu 06:20:13 PM 44.7497 -93.3836 154° Southeast 312 359 10,700 1,935 Climbing Minneapolis Center
Thu 06:21:00 PM 44.2217 -92.8978 154° Southeast  Level FlightAware Approximate
Thu 06:21:15 PM 44.6508 -93.2900 146° Southeast 370 426 12,700  Level Minneapolis Center
Thu 06:22:17 PM 44.5592 -93.2033 146° Southeast 404 465 14,500 1,839 Climbing Minneapolis Center
Thu 06:23:19 PM 44.4625 -93.1133 146° Southeast 417 480 16,500 1,728 Climbing Minneapolis Center
Thu 06:24:22 PM 44.3633 -93.0197 146° Southeast 432 497 18,100 1,728 Climbing Minneapolis Center
Thu 06:25:24 PM 44.2456 -92.8850 141° Southeast 457 526 20,100 1,742 Climbing Minneapolis Center
Thu 06:26:26 PM 44.1472 -92.7697 140° Southeast 462 532 21,700 1,500 Climbing Minneapolis Center
Thu 06:27:28 PM 44.0464 -92.6503 140° Southeast 474 545 23,200 1,355 Climbing Minneapolis Center
Thu 06:28:30 PM 43.9422 -92.5300 140° Southeast 485 558 24,500 1,210 Climbing Minneapolis Center
Thu 06:29:32 PM 43.8375 -92.4081 140° Southeast 490 564 25,700 1,210 Climbing Minneapolis Center
Thu 06:30:34 PM 43.7211 -92.2703 139° Southeast 506 582 27,000 1,113 Climbing Minneapolis Center
Thu 06:31:36 PM 43.6136 -92.1456 140° Southeast 506 582 28,000 1,016 Climbing Minneapolis Center
Thu 06:32:38 PM 43.5031 -92.0189 140° Southeast 511 588 29,100 1,161 Climbing Minneapolis Center
Thu 06:33:40 PM 43.3706 -91.8711 141° Southeast 512 589 30,400 912 Climbing Minneapolis Center
Thu 06:34:43 PM 43.2594 -91.7436 140° Southeast 514 592 31,000 288 Climbing Minneapolis Center
Thu 06:35:45 PM 43.1622 -91.5903 131° Southeast 541 623 31,000  Level Minneapolis Center
Thu 06:36:47 PM 43.0972 -91.4019 115° Southeast 544 626 31,000  Level Minneapolis Center
Thu 06:37:49 PM 43.0317 -91.2156 116° Southeast 544 626 31,000  Level Minneapolis Center
Thu 06:38:51 PM 42.9667 -91.0289 115° Southeast 544 626 31,000  Level Minneapolis Center
Thu 06:39:53 PM 42.9017 -90.8425 115° Southeast 544 626 31,000  Level Minneapolis Center
Thu 06:40:55 PM 42.8228 -90.6217 116° Southeast 543 625 31,000 -484 Level Minneapolis Center
Thu 06:41:57 PM 42.7575 -90.4369 116° Southeast 543 625 30,000 -1,210 Descending Minneapolis Center
Thu 06:42:59 PM 42.6853 -90.2400 116° Southeast 543 625 28,500 -1,697 Descending Minneapolis Center
Thu 06:44:29 PM 42.6022 -90.0136 116° Southeast 523 602 25,700 -1,776 Descending Chicago Center
Thu 06:45:31 PM 42.5322 -89.8153 116° Southeast 507 583 24,000 -1,839 Descending Chicago Center
Thu 06:46:33 PM 42.5158 -89.6350 97° East 496 571 21,900 -2,226 Descending Chicago Center
Thu 06:47:35 PM 42.5119 -89.4558 92° East 482 555 19,400 -2,129 Descending Chicago Center
Thu 06:48:37 PM 42.5089 -89.2828 91° East 468 539 17,500 -2,032 Descending Chicago Center
Thu 06:49:39 PM 42.5067 -89.0767 91° East 462 532 15,200 -2,032 Descending Chicago Center
Thu 06:50:41 PM 42.4981 -88.9125 94° East 448 516 13,300 -1,790 Descending Chicago Center
Thu 06:51:43 PM 42.4542 -88.7636 112° Southeast 429 494 11,500 -1,113 Descending Chicago Center
Thu 06:52:45 PM 42.4133 -88.6228 111° Southeast 408 470 11,000 -242 Descending Chicago Center
Thu 06:53:47 PM 42.3722 -88.4917 113° Southeast 386 444 11,000  Level Chicago Center
Thu 06:54:50 PM 42.3103 -88.3400 119° Southeast 399 459 11,000 -480 Level Chicago Center
Thu 06:55:52 PM 42.2447 -88.2306 129° Southeast 378 435 10,000 -484 Descending Chicago Center
Thu 06:56:54 PM 42.1617 -88.1317 139° Southeast 372 428 10,000 -212 Level Chicago Center
Thu 06:57:45 PM 42.1000 -88.0500 135° Southeast 320 368 9,600 -962 Descending Chicago TRACON
Thu 06:58:40 PM 42.0500 -88.0000 143° Southeast 300 345 8,300 -1,304 Descending Chicago TRACON
Thu 06:59:40 PM 41.9833 -87.9167 137° Southeast 312 359 7,100 -650 Descending Chicago TRACON
Thu 07:00:40 PM 41.9333 -87.8500 135° Southeast 259 298 7,000 -550 Descending Chicago TRACON
Thu 07:01:40 PM 41.8833 -87.7833 135° Southeast 233 268 6,000 -1,200 Descending Chicago TRACON
Thu 07:02:40 PM 41.9000 -87.7167 71° East 225 259 4,600 -1,600 Descending Chicago TRACON
Thu 07:03:40 PM 41.9500 -87.7500 334° Northwest 207 238 2,800 -1,421 Descending Chicago TRACON
Thu 07:04:34 PM 41.9667 -87.8167 289° West 174 200 1,900 -895 Descending Chicago TRACON
Thu 07:05:34 PM 41.9667 -87.8667 270° West 132 152 1,100 -800 Descending Chicago TRACON

Login

Don't have an account? Register now (free) for customized features, flight alerts, and more!